sensor_id;sensor_type;location;lat;lon;timestamp;temperature;humidity
12481;DHT22;6305;48.398;11.762;2023-10-09T00:00:34;11.60;99.90
12481;DHT22;6305;48.398;11.762;2023-10-09T00:03:27;11.50;99.90
12481;DHT22;6305;48.398;11.762;2023-10-09T00:05:54;11.60;99.90
12481;DHT22;6305;48.398;11.762;2023-10-09T00:08:22;11.50;99.90
12481;DHT22;6305;48.398;11.762;2023-10-09T00:10:54;11.50;99.90
12481;DHT22;6305;48.398;11.762;2023-10-09T00:13:23;11.50;99.90
12481;DHT22;6305;48.398;11.762;2023-10-09T00:15:54;11.50;99.90
12481;DHT22;6305;48.398;11.762;2023-10-09T00:18:25;11.40;99.90
12481;DHT22;6305;48.398;11.762;2023-10-09T00:20:55;11.40;99.90
12481;DHT22;6305;48.398;11.762;2023-10-09T00:23:27;11.40;99.90
12481;DHT22;6305;48.398;11.762;2023-10-09T00:26:01;11.30;99.90
12481;DHT22;6305;48.398;11.762;2023-10-09T00:28:42;11.30;99.90
12481;DHT22;6305;48.398;11.762;2023-10-09T00:31:12;11.30;99.90
12481;DHT22;6305;48.398;11.762;2023-10-09T00:33:41;11.30;99.90
12481;DHT22;6305;48.398;11.762;2023-10-09T00:36:09;11.30;99.90
12481;DHT22;6305;48.398;11.762;2023-10-09T00:38:36;11.30;99.90
12481;DHT22;6305;48.398;11.762;2023-10-09T00:41:12;11.30;99.90
12481;DHT22;6305;48.398;11.762;2023-10-09T00:43:45;11.30;99.90
12481;DHT22;6305;48.398;11.762;2023-10-09T00:46:16;11.30;99.90
12481;DHT22;6305;48.398;11.762;2023-10-09T00:48:54;11.30;99.90
12481;DHT22;6305;48.398;11.762;2023-10-09T00:51:22;11.20;99.90
12481;DHT22;6305;48.398;11.762;2023-10-09T00:53:52;11.20;99.90
12481;DHT22;6305;48.398;11.762;2023-10-09T00:56:22;11.20;99.90
12481;DHT22;6305;48.398;11.762;2023-10-09T00:59:03;11.20;99.90
12481;DHT22;6305;48.398;11.762;2023-10-09T01:01:36;11.10;99.90
12481;DHT22;6305;48.398;11.762;2023-10-09T01:04:05;11.00;99.90
12481;DHT22;6305;48.398;11.762;2023-10-09T01:06:32;11.00;99.90
12481;DHT22;6305;48.398;11.762;2023-10-09T01:09:01;10.90;99.90
12481;DHT22;6305;48.398;11.762;2023-10-09T01:11:36;10.90;99.90
12481;DHT22;6305;48.398;11.762;2023-10-09T01:14:14;10.90;99.90
12481;DHT22;6305;48.398;11.762;2023-10-09T01:16:41;10.80;99.90
12481;DHT22;6305;48.398;11.762;2023-10-09T01:19:09;10.80;99.90
12481;DHT22;6305;48.398;11.762;2023-10-09T01:21:46;10.80;99.90
12481;DHT22;6305;48.398;11.762;2023-10-09T01:24:16;10.80;99.90
12481;DHT22;6305;48.398;11.762;2023-10-09T01:26:46;10.80;99.90
12481;DHT22;6305;48.398;11.762;2023-10-09T01:29:16;10.80;99.90
12481;DHT22;6305;48.398;11.762;2023-10-09T01:31:45;10.80;99.90
12481;DHT22;6305;48.398;11.762;2023-10-09T01:34:21;10.70;99.90
12481;DHT22;6305;48.398;11.762;2023-10-09T01:36:52;10.70;99.90
12481;DHT22;6305;48.398;11.762;2023-10-09T01:39:23;10.70;99.90
12481;DHT22;6305;48.398;11.762;2023-10-09T01:41:52;10.70;99.90
12481;DHT22;6305;48.398;11.762;2023-10-09T01:44:26;10.60;99.90
12481;DHT22;6305;48.398;11.762;2023-10-09T01:46:52;10.50;99.90
12481;DHT22;6305;48.398;11.762;2023-10-09T01:49:21;10.50;99.90
12481;DHT22;6305;48.398;11.762;2023-10-09T01:51:55;10.40;99.90
12481;DHT22;6305;48.398;11.762;2023-10-09T01:54:27;10.40;99.90
12481;DHT22;6305;48.398;11.762;2023-10-09T01:57:07;10.40;99.90
12481;DHT22;6305;48.398;11.762;2023-10-09T01:59:38;10.40;99.90
12481;DHT22;6305;48.398;11.762;2023-10-09T02:02:13;10.30;99.90
12481;DHT22;6305;48.398;11.762;2023-10-09T02:04:53;10.30;99.90
12481;DHT22;6305;48.398;11.762;2023-10-09T02:07:22;10.30;99.90
12481;DHT22;6305;48.398;11.762;2023-10-09T02:09:55;10.30;99.90
12481;DHT22;6305;48.398;11.762;2023-10-09T02:12:22;10.40;99.90
12481;DHT22;6305;48.398;11.762;2023-10-09T02:14:50;10.50;99.90
12481;DHT22;6305;48.398;11.762;2023-10-09T02:17:20;10.50;99.90
12481;DHT22;6305;48.398;11.762;2023-10-09T02:19:50;10.50;99.90
12481;DHT22;6305;48.398;11.762;2023-10-09T02:22:18;10.60;99.90
12481;DHT22;6305;48.398;11.762;2023-10-09T02:24:45;10.60;99.90
12481;DHT22;6305;48.398;11.762;2023-10-09T02:27:25;10.60;99.90
12481;DHT22;6305;48.398;11.762;2023-10-09T02:30:12;10.60;99.90
12481;DHT22;6305;48.398;11.762;2023-10-09T02:32:45;10.60;99.90
12481;DHT22;6305;48.398;11.762;2023-10-09T02:35:18;10.60;99.90
12481;DHT22;6305;48.398;11.762;2023-10-09T02:37:57;10.60;99.90
12481;DHT22;6305;48.398;11.762;2023-10-09T02:40:27;10.60;99.90
12481;DHT22;6305;48.398;11.762;2023-10-09T02:42:59;10.60;99.90
12481;DHT22;6305;48.398;11.762;2023-10-09T02:45:26;10.60;99.90
12481;DHT22;6305;48.398;11.762;2023-10-09T02:48:00;10.60;99.90
12481;DHT22;6305;48.398;11.762;2023-10-09T02:50:36;10.60;99.90
12481;DHT22;6305;48.398;11.762;2023-10-09T02:53:05;10.60;99.90
12481;DHT22;6305;48.398;11.762;2023-10-09T02:55:35;10.60;99.90
12481;DHT22;6305;48.398;11.762;2023-10-09T02:58:05;10.60;99.90
12481;DHT22;6305;48.398;11.762;2023-10-09T03:00:36;10.60;99.90
12481;DHT22;6305;48.398;11.762;2023-10-09T03:03:04;10.60;99.90
12481;DHT22;6305;48.398;11.762;2023-10-09T03:05:33;10.60;99.90
12481;DHT22;6305;48.398;11.762;2023-10-09T03:08:00;10.60;99.90
12481;DHT22;6305;48.398;11.762;2023-10-09T03:10:27;10.60;99.90
12481;DHT22;6305;48.398;11.762;2023-10-09T03:12:55;10.50;99.90
12481;DHT22;6305;48.398;11.762;2023-10-09T03:15:23;10.40;99.90
12481;DHT22;6305;48.398;11.762;2023-10-09T03:17:51;10.40;99.90
12481;DHT22;6305;48.398;11.762;2023-10-09T03:20:18;10.40;99.90
12481;DHT22;6305;48.398;11.762;2023-10-09T03:22:46;10.30;99.90
12481;DHT22;6305;48.398;11.762;2023-10-09T03:25:15;10.20;99.90
12481;DHT22;6305;48.398;11.762;2023-10-09T03:27:44;10.20;99.90
12481;DHT22;6305;48.398;11.762;2023-10-09T03:30:13;10.20;99.90
12481;DHT22;6305;48.398;11.762;2023-10-09T03:32:51;10.30;99.90
12481;DHT22;6305;48.398;11.762;2023-10-09T03:35:18;10.30;99.90
12481;DHT22;6305;48.398;11.762;2023-10-09T03:37:52;10.30;99.90
12481;DHT22;6305;48.398;11.762;2023-10-09T03:40:23;10.30;99.90
12481;DHT22;6305;48.398;11.762;2023-10-09T03:42:51;10.40;99.90
12481;DHT22;6305;48.398;11.762;2023-10-09T03:45:18;10.40;99.90
12481;DHT22;6305;48.398;11.762;2023-10-09T03:47:54;10.40;99.90
12481;DHT22;6305;48.398;11.762;2023-10-09T03:50:29;10.40;99.90
12481;DHT22;6305;48.398;11.762;2023-10-09T03:53:02;10.40;99.90
12481;DHT22;6305;48.398;11.762;2023-10-09T03:55:34;10.50;99.90
12481;DHT22;6305;48.398;11.762;2023-10-09T03:58:04;10.40;99.90
12481;DHT22;6305;48.398;11.762;2023-10-09T04:00:32;10.40;99.90
12481;DHT22;6305;48.398;11.762;2023-10-09T04:03:12;10.30;99.90
12481;DHT22;6305;48.398;11.762;2023-10-09T04:05:40;10.30;99.90
12481;DHT22;6305;48.398;11.762;2023-10-09T04:08:09;10.30;99.90
12481;DHT22;6305;48.398;11.762;2023-10-09T04:10:42;10.20;99.90
12481;DHT22;6305;48.398;11.762;2023-10-09T04:13:18;10.20;99.90
12481;DHT22;6305;48.398;11.762;2023-10-09T04:15:51;10.20;99.90
12481;DHT22;6305;48.398;11.762;2023-10-09T04:18:21;10.20;99.90
12481;DHT22;6305;48.398;11.762;2023-10-09T04:20:55;10.10;99.90
12481;DHT22;6305;48.398;11.762;2023-10-09T04:23:38;10.10;99.90
12481;DHT22;6305;48.398;11.762;2023-10-09T04:26:19;10.10;99.90
12481;DHT22;6305;48.398;11.762;2023-10-09T04:28:46;10.00;99.90
12481;DHT22;6305;48.398;11.762;2023-10-09T04:31:18;10.00;99.90
12481;DHT22;6305;48.398;11.762;2023-10-09T04:33:47;9.90;99.90
12481;DHT22;6305;48.398;11.762;2023-10-09T04:36:40;9.80;99.90
12481;DHT22;6305;48.398;11.762;2023-10-09T04:39:17;9.80;99.90
12481;DHT22;6305;48.398;11.762;2023-10-09T04:41:59;9.60;99.90
12481;DHT22;6305;48.398;11.762;2023-10-09T04:44:40;9.60;99.90
12481;DHT22;6305;48.398;11.762;2023-10-09T04:47:25;9.60;99.90
12481;DHT22;6305;48.398;11.762;2023-10-09T04:50:03;9.50;99.90
12481;DHT22;6305;48.398;11.762;2023-10-09T04:52:37;9.50;99.90
12481;DHT22;6305;48.398;11.762;2023-10-09T04:55:19;9.60;99.90
12481;DHT22;6305;48.398;11.762;2023-10-09T04:57:51;9.60;99.90
12481;DHT22;6305;48.398;11.762;2023-10-09T05:00:28;9.70;99.90
12481;DHT22;6305;48.398;11.762;2023-10-09T05:03:27;9.70;99.90
12481;DHT22;6305;48.398;11.762;2023-10-09T05:05:56;9.70;99.90
12481;DHT22;6305;48.398;11.762;2023-10-09T05:08:46;9.70;99.90
12481;DHT22;6305;48.398;11.762;2023-10-09T05:11:13;9.70;99.90
12481;DHT22;6305;48.398;11.762;2023-10-09T05:14:00;9.70;99.90
12481;DHT22;6305;48.398;11.762;2023-10-09T05:16:44;9.70;99.90
12481;DHT22;6305;48.398;11.762;2023-10-09T05:19:21;9.80;99.90
12481;DHT22;6305;48.398;11.762;2023-10-09T05:22:10;9.80;99.90
12481;DHT22;6305;48.398;11.762;2023-10-09T05:24:56;9.90;99.90
12481;DHT22;6305;48.398;11.762;2023-10-09T05:27:23;9.90;99.90
12481;DHT22;6305;48.398;11.762;2023-10-09T05:30:11;10.00;99.90
12481;DHT22;6305;48.398;11.762;2023-10-09T05:32:53;10.00;99.90
12481;DHT22;6305;48.398;11.762;2023-10-09T05:35:24;10.10;99.90
12481;DHT22;6305;48.398;11.762;2023-10-09T05:38:08;10.20;99.90
12481;DHT22;6305;48.398;11.762;2023-10-09T05:40:49;10.20;99.90
12481;DHT22;6305;48.398;11.762;2023-10-09T05:43:20;10.30;99.90
12481;DHT22;6305;48.398;11.762;2023-10-09T05:46:01;10.40;99.90
12481;DHT22;6305;48.398;11.762;2023-10-09T05:48:35;10.50;99.90
12481;DHT22;6305;48.398;11.762;2023-10-09T05:51:21;10.50;99.90
12481;DHT22;6305;48.398;11.762;2023-10-09T05:54:07;10.50;99.90
12481;DHT22;6305;48.398;11.762;2023-10-09T05:56:57;10.60;99.90
12481;DHT22;6305;48.398;11.762;2023-10-09T05:59:56;10.70;99.90
12481;DHT22;6305;48.398;11.762;2023-10-09T06:02:40;10.70;99.90
12481;DHT22;6305;48.398;11.762;2023-10-09T06:05:24;10.70;99.90
12481;DHT22;6305;48.398;11.762;2023-10-09T06:08:29;10.80;99.90
12481;DHT22;6305;48.398;11.762;2023-10-09T06:11:26;10.90;99.90
12481;DHT22;6305;48.398;11.762;2023-10-09T06:14:05;11.00;99.90
12481;DHT22;6305;48.398;11.762;2023-10-09T06:16:39;11.10;99.90
12481;DHT22;6305;48.398;11.762;2023-10-09T06:19:09;11.20;99.90
12481;DHT22;6305;48.398;11.762;2023-10-09T06:21:39;11.30;99.90
12481;DHT22;6305;48.398;11.762;2023-10-09T06:24:07;11.40;99.90
12481;DHT22;6305;48.398;11.762;2023-10-09T06:26:43;11.50;99.90
12481;DHT22;6305;48.398;11.762;2023-10-09T06:29:39;11.60;99.90
12481;DHT22;6305;48.398;11.762;2023-10-09T06:32:18;11.70;99.90
12481;DHT22;6305;48.398;11.762;2023-10-09T06:35:04;12.00;99.90
12481;DHT22;6305;48.398;11.762;2023-10-09T06:37:44;12.20;99.90
12481;DHT22;6305;48.398;11.762;2023-10-09T06:40:38;12.50;99.90
12481;DHT22;6305;48.398;11.762;2023-10-09T06:43:39;12.80;99.90
12481;DHT22;6305;48.398;11.762;2023-10-09T06:46:16;13.20;99.90
12481;DHT22;6305;48.398;11.762;2023-10-09T06:49:00;13.60;99.90
12481;DHT22;6305;48.398;11.762;2023-10-09T06:51:47;14.10;99.90
12481;DHT22;6305;48.398;11.762;2023-10-09T06:54:21;14.70;99.90
12481;DHT22;6305;48.398;11.762;2023-10-09T06:56:51;15.20;99.90
12481;DHT22;6305;48.398;11.762;2023-10-09T06:59:38;15.60;99.90
12481;DHT22;6305;48.398;11.762;2023-10-09T07:02:30;16.10;99.90
12481;DHT22;6305;48.398;11.762;2023-10-09T07:05:11;17.30;99.90
12481;DHT22;6305;48.398;11.762;2023-10-09T07:07:43;18.40;99.90
12481;DHT22;6305;48.398;11.762;2023-10-09T07:10:21;19.50;99.90
12481;DHT22;6305;48.398;11.762;2023-10-09T07:12:59;20.90;99.90
12481;DHT22;6305;48.398;11.762;2023-10-09T07:15:29;21.90;99.90
12481;DHT22;6305;48.398;11.762;2023-10-09T07:18:13;22.30;99.90
12481;DHT22;6305;48.398;11.762;2023-10-09T07:20:49;22.30;99.90
12481;DHT22;6305;48.398;11.762;2023-10-09T07:23:30;22.70;99.90
12481;DHT22;6305;48.398;11.762;2023-10-09T07:26:03;23.20;98.50
12481;DHT22;6305;48.398;11.762;2023-10-09T07:28:53;23.50;98.00
12481;DHT22;6305;48.398;11.762;2023-10-09T07:31:43;24.00;92.90
12481;DHT22;6305;48.398;11.762;2023-10-09T07:34:11;23.50;90.90
12481;DHT22;6305;48.398;11.762;2023-10-09T07:36:56;22.80;93.40
12481;DHT22;6305;48.398;11.762;2023-10-09T07:39:23;21.90;96.80
12481;DHT22;6305;48.398;11.762;2023-10-09T07:42:01;21.40;99.30
12481;DHT22;6305;48.398;11.762;2023-10-09T07:44:41;20.70;99.90
12481;DHT22;6305;48.398;11.762;2023-10-09T07:47:19;20.10;99.90
12481;DHT22;6305;48.398;11.762;2023-10-09T07:49:58;19.80;99.90
12481;DHT22;6305;48.398;11.762;2023-10-09T07:52:29;20.50;99.90
12481;DHT22;6305;48.398;11.762;2023-10-09T07:54:56;20.80;99.90
12481;DHT22;6305;48.398;11.762;2023-10-09T07:57:29;20.80;99.90
12481;DHT22;6305;48.398;11.762;2023-10-09T08:00:06;20.60;99.90
12481;DHT22;6305;48.398;11.762;2023-10-09T08:03:00;20.40;99.90
12481;DHT22;6305;48.398;11.762;2023-10-09T08:05:29;20.00;99.90
12481;DHT22;6305;48.398;11.762;2023-10-09T08:08:01;19.90;99.90
12481;DHT22;6305;48.398;11.762;2023-10-09T08:11:07;19.80;99.90
12481;DHT22;6305;48.398;11.762;2023-10-09T08:14:00;19.70;99.90
12481;DHT22;6305;48.398;11.762;2023-10-09T08:16:28;19.70;99.90
12481;DHT22;6305;48.398;11.762;2023-10-09T08:19:03;19.90;99.90
12481;DHT22;6305;48.398;11.762;2023-10-09T08:21:54;20.20;99.90
12481;DHT22;6305;48.398;11.762;2023-10-09T08:24:43;20.70;99.90
12481;DHT22;6305;48.398;11.762;2023-10-09T08:27:18;21.00;99.90
12481;DHT22;6305;48.398;11.762;2023-10-09T08:30:14;21.30;99.90
12481;DHT22;6305;48.398;11.762;2023-10-09T08:32:54;21.30;99.90
12481;DHT22;6305;48.398;11.762;2023-10-09T08:35:30;21.30;99.90
12481;DHT22;6305;48.398;11.762;2023-10-09T08:37:58;21.30;99.90
12481;DHT22;6305;48.398;11.762;2023-10-09T08:40:31;21.40;99.90
12481;DHT22;6305;48.398;11.762;2023-10-09T08:43:08;21.60;99.90
12481;DHT22;6305;48.398;11.762;2023-10-09T08:45:38;21.80;99.60
12481;DHT22;6305;48.398;11.762;2023-10-09T08:48:07;22.10;97.40
12481;DHT22;6305;48.398;11.762;2023-10-09T08:50:39;22.60;96.10
12481;DHT22;6305;48.398;11.762;2023-10-09T08:53:08;22.90;94.70
12481;DHT22;6305;48.398;11.762;2023-10-09T08:55:36;23.90;91.50
12481;DHT22;6305;48.398;11.762;2023-10-09T08:58:04;25.50;84.30
12481;DHT22;6305;48.398;11.762;2023-10-09T09:00:38;27.40;73.20
12481;DHT22;6305;48.398;11.762;2023-10-09T09:03:09;27.20;64.10
12481;DHT22;6305;48.398;11.762;2023-10-09T09:05:36;26.30;64.70
12481;DHT22;6305;48.398;11.762;2023-10-09T09:08:21;25.10;68.10
12481;DHT22;6305;48.398;11.762;2023-10-09T09:10:55;24.10;72.90
12481;DHT22;6305;48.398;11.762;2023-10-09T09:13:24;23.40;78.50
12481;DHT22;6305;48.398;11.762;2023-10-09T09:15:57;22.80;82.50
12481;DHT22;6305;48.398;11.762;2023-10-09T09:18:24;22.50;88.60
12481;DHT22;6305;48.398;11.762;2023-10-09T09:20:57;22.30;91.50
12481;DHT22;6305;48.398;11.762;2023-10-09T09:23:26;22.40;92.40
12481;DHT22;6305;48.398;11.762;2023-10-09T09:25:53;22.40;93.10
12481;DHT22;6305;48.398;11.762;2023-10-09T09:28:26;22.40;93.10
12481;DHT22;6305;48.398;11.762;2023-10-09T09:31:07;22.20;93.40
12481;DHT22;6305;48.398;11.762;2023-10-09T09:33:38;22.10;94.70
12481;DHT22;6305;48.398;11.762;2023-10-09T09:36:06;22.00;94.50
12481;DHT22;6305;48.398;11.762;2023-10-09T09:38:38;21.90;95.30
12481;DHT22;6305;48.398;11.762;2023-10-09T09:41:14;21.80;96.00
12481;DHT22;6305;48.398;11.762;2023-10-09T09:43:52;21.90;96.30
12481;DHT22;6305;48.398;11.762;2023-10-09T09:46:22;21.90;95.90
12481;DHT22;6305;48.398;11.762;2023-10-09T09:48:57;21.90;96.40
12481;DHT22;6305;48.398;11.762;2023-10-09T09:51:26;21.90;96.80
12481;DHT22;6305;48.398;11.762;2023-10-09T09:53:56;22.00;96.20
12481;DHT22;6305;48.398;11.762;2023-10-09T09:56:25;22.10;94.80
12481;DHT22;6305;48.398;11.762;2023-10-09T09:58:52;22.20;95.60
12481;DHT22;6305;48.398;11.762;2023-10-09T10:01:26;22.20;95.20
12481;DHT22;6305;48.398;11.762;2023-10-09T10:03:59;22.20;95.30
12481;DHT22;6305;48.398;11.762;2023-10-09T10:06:28;22.20;94.70
12481;DHT22;6305;48.398;11.762;2023-10-09T10:08:59;22.30;94.80
12481;DHT22;6305;48.398;11.762;2023-10-09T10:11:42;22.20;94.10
12481;DHT22;6305;48.398;11.762;2023-10-09T10:14:10;22.30;94.90
12481;DHT22;6305;48.398;11.762;2023-10-09T10:17:00;22.40;94.50
12481;DHT22;6305;48.398;11.762;2023-10-09T10:20:00;22.60;93.60
12481;DHT22;6305;48.398;11.762;2023-10-09T10:22:40;22.80;93.40
12481;DHT22;6305;48.398;11.762;2023-10-09T10:25:32;23.20;91.70
12481;DHT22;6305;48.398;11.762;2023-10-09T10:28:20;23.90;91.40
12481;DHT22;6305;48.398;11.762;2023-10-09T10:31:01;24.90;85.40
12481;DHT22;6305;48.398;11.762;2023-10-09T10:34:03;25.40;77.50
12481;DHT22;6305;48.398;11.762;2023-10-09T10:36:32;26.00;75.60
12481;DHT22;6305;48.398;11.762;2023-10-09T10:39:01;26.20;70.60
12481;DHT22;6305;48.398;11.762;2023-10-09T10:41:37;26.60;70.30
12481;DHT22;6305;48.398;11.762;2023-10-09T10:44:24;26.50;66.30
12481;DHT22;6305;48.398;11.762;2023-10-09T10:47:02;26.00;65.00
12481;DHT22;6305;48.398;11.762;2023-10-09T10:49:30;25.40;67.40
12481;DHT22;6305;48.398;11.762;2023-10-09T10:52:02;25.20;69.20
12481;DHT22;6305;48.398;11.762;2023-10-09T10:54:41;25.10;70.50
12481;DHT22;6305;48.398;11.762;2023-10-09T10:57:35;24.90;71.90
12481;DHT22;6305;48.398;11.762;2023-10-09T11:00:19;25.00;71.30
12481;DHT22;6305;48.398;11.762;2023-10-09T11:03:01;25.30;71.40
12481;DHT22;6305;48.398;11.762;2023-10-09T11:05:42;25.80;68.30
12481;DHT22;6305;48.398;11.762;2023-10-09T11:08:16;26.20;65.10
12481;DHT22;6305;48.398;11.762;2023-10-09T11:10:49;27.30;60.90
12481;DHT22;6305;48.398;11.762;2023-10-09T11:13:25;28.80;56.10
12481;DHT22;6305;48.398;11.762;2023-10-09T11:15:56;29.30;53.30
12481;DHT22;6305;48.398;11.762;2023-10-09T11:18:41;29.10;52.30
12481;DHT22;6305;48.398;11.762;2023-10-09T11:21:13;29.20;52.40
12481;DHT22;6305;48.398;11.762;2023-10-09T11:24:00;28.80;51.70
12481;DHT22;6305;48.398;11.762;2023-10-09T11:26:50;27.80;52.50
12481;DHT22;6305;48.398;11.762;2023-10-09T11:29:23;26.70;54.20
12481;DHT22;6305;48.398;11.762;2023-10-09T11:31:59;25.90;55.50
12481;DHT22;6305;48.398;11.762;2023-10-09T11:34:25;25.30;57.40
12481;DHT22;6305;48.398;11.762;2023-10-09T11:37:01;24.90;59.50
12481;DHT22;6305;48.398;11.762;2023-10-09T11:39:29;24.80;59.90
12481;DHT22;6305;48.398;11.762;2023-10-09T11:42:04;24.70;60.90
12481;DHT22;6305;48.398;11.762;2023-10-09T11:44:39;24.70;60.20
12481;DHT22;6305;48.398;11.762;2023-10-09T11:47:07;24.60;60.30
12481;DHT22;6305;48.398;11.762;2023-10-09T11:49:59;25.00;61.20
12481;DHT22;6305;48.398;11.762;2023-10-09T11:52:56;26.00;60.00
12481;DHT22;6305;48.398;11.762;2023-10-09T11:55:37;27.30;56.70
12481;DHT22;6305;48.398;11.762;2023-10-09T11:58:04;27.80;54.30
12481;DHT22;6305;48.398;11.762;2023-10-09T12:00:34;27.80;53.00
12481;DHT22;6305;48.398;11.762;2023-10-09T12:03:11;27.50;53.10
12481;DHT22;6305;48.398;11.762;2023-10-09T12:05:40;26.50;53.70
12481;DHT22;6305;48.398;11.762;2023-10-09T12:08:11;25.60;55.70
12481;DHT22;6305;48.398;11.762;2023-10-09T12:10:41;24.80;57.50
12481;DHT22;6305;48.398;11.762;2023-10-09T12:13:08;24.30;59.20
12481;DHT22;6305;48.398;11.762;2023-10-09T12:15:37;23.80;61.10
12481;DHT22;6305;48.398;11.762;2023-10-09T12:18:05;23.70;62.80
12481;DHT22;6305;48.398;11.762;2023-10-09T12:20:35;23.50;64.10
12481;DHT22;6305;48.398;11.762;2023-10-09T12:23:03;23.40;65.30
12481;DHT22;6305;48.398;11.762;2023-10-09T12:25:32;23.30;66.50
12481;DHT22;6305;48.398;11.762;2023-10-09T12:28:02;23.20;67.00
12481;DHT22;6305;48.398;11.762;2023-10-09T12:30:30;23.20;66.90
12481;DHT22;6305;48.398;11.762;2023-10-09T12:33:06;23.10;67.30
12481;DHT22;6305;48.398;11.762;2023-10-09T12:35:37;23.00;66.90
12481;DHT22;6305;48.398;11.762;2023-10-09T12:38:04;22.70;67.60
12481;DHT22;6305;48.398;11.762;2023-10-09T12:40:35;22.60;68.90
12481;DHT22;6305;48.398;11.762;2023-10-09T12:43:02;22.50;69.80
12481;DHT22;6305;48.398;11.762;2023-10-09T12:45:33;22.20;70.50
12481;DHT22;6305;48.398;11.762;2023-10-09T12:48:01;22.00;71.70
12481;DHT22;6305;48.398;11.762;2023-10-09T12:50:36;21.80;72.30
12481;DHT22;6305;48.398;11.762;2023-10-09T12:53:08;21.60;74.70
12481;DHT22;6305;48.398;11.762;2023-10-09T12:55:36;21.40;76.20
12481;DHT22;6305;48.398;11.762;2023-10-09T12:58:07;21.10;79.20
12481;DHT22;6305;48.398;11.762;2023-10-09T13:00:35;20.80;87.30
12481;DHT22;6305;48.398;11.762;2023-10-09T13:03:06;20.40;92.50
12481;DHT22;6305;48.398;11.762;2023-10-09T13:05:48;20.20;96.40
12481;DHT22;6305;48.398;11.762;2023-10-09T13:08:23;19.90;98.10
12481;DHT22;6305;48.398;11.762;2023-10-09T13:11:01;19.70;99.90
12481;DHT22;6305;48.398;11.762;2023-10-09T13:13:37;19.60;99.90
12481;DHT22;6305;48.398;11.762;2023-10-09T13:16:08;19.50;99.90
12481;DHT22;6305;48.398;11.762;2023-10-09T13:18:39;19.40;99.90
12481;DHT22;6305;48.398;11.762;2023-10-09T13:21:08;19.30;99.90
12481;DHT22;6305;48.398;11.762;2023-10-09T13:23:35;19.30;99.90
12481;DHT22;6305;48.398;11.762;2023-10-09T13:26:13;19.20;99.90
12481;DHT22;6305;48.398;11.762;2023-10-09T13:28:50;19.10;99.90
12481;DHT22;6305;48.398;11.762;2023-10-09T13:31:17;18.90;99.90
12481;DHT22;6305;48.398;11.762;2023-10-09T13:33:47;18.70;99.90
12481;DHT22;6305;48.398;11.762;2023-10-09T13:36:22;18.40;99.90
12481;DHT22;6305;48.398;11.762;2023-10-09T13:38:57;18.20;99.90
12481;DHT22;6305;48.398;11.762;2023-10-09T13:41:28;18.20;99.90
12481;DHT22;6305;48.398;11.762;2023-10-09T13:43:55;18.10;99.90
12481;DHT22;6305;48.398;11.762;2023-10-09T13:46:23;18.10;99.90
12481;DHT22;6305;48.398;11.762;2023-10-09T13:48:50;18.10;99.90
12481;DHT22;6305;48.398;11.762;2023-10-09T13:51:18;18.00;99.90
12481;DHT22;6305;48.398;11.762;2023-10-09T13:53:50;18.00;99.90
12481;DHT22;6305;48.398;11.762;2023-10-09T13:56:19;18.00;99.90
12481;DHT22;6305;48.398;11.762;2023-10-09T13:58:47;18.10;99.90
12481;DHT22;6305;48.398;11.762;2023-10-09T14:01:15;18.20;99.90
12481;DHT22;6305;48.398;11.762;2023-10-09T14:03:54;18.30;99.90
12481;DHT22;6305;48.398;11.762;2023-10-09T14:06:21;18.60;99.90
12481;DHT22;6305;48.398;11.762;2023-10-09T14:08:58;18.80;99.90
12481;DHT22;6305;48.398;11.762;2023-10-09T14:11:25;19.10;99.90
12481;DHT22;6305;48.398;11.762;2023-10-09T14:13:53;19.40;99.90
12481;DHT22;6305;48.398;11.762;2023-10-09T14:16:20;19.60;99.90
12481;DHT22;6305;48.398;11.762;2023-10-09T14:18:57;19.80;99.90
12481;DHT22;6305;48.398;11.762;2023-10-09T14:21:26;19.90;99.90
12481;DHT22;6305;48.398;11.762;2023-10-09T14:23:57;20.00;99.90
12481;DHT22;6305;48.398;11.762;2023-10-09T14:26:25;20.10;99.90
12481;DHT22;6305;48.398;11.762;2023-10-09T14:28:52;20.10;99.90
12481;DHT22;6305;48.398;11.762;2023-10-09T14:31:19;20.10;99.90
12481;DHT22;6305;48.398;11.762;2023-10-09T14:33:52;20.10;99.90
12481;DHT22;6305;48.398;11.762;2023-10-09T14:36:19;20.10;99.90
12481;DHT22;6305;48.398;11.762;2023-10-09T14:38:48;20.00;99.90
12481;DHT22;6305;48.398;11.762;2023-10-09T14:41:20;20.00;99.90
12481;DHT22;6305;48.398;11.762;2023-10-09T14:43:50;20.00;99.90
12481;DHT22;6305;48.398;11.762;2023-10-09T14:46:18;19.90;99.90
12481;DHT22;6305;48.398;11.762;2023-10-09T14:48:51;19.90;99.90
12481;DHT22;6305;48.398;11.762;2023-10-09T14:51:20;19.80;99.90
12481;DHT22;6305;48.398;11.762;2023-10-09T14:53:54;19.80;99.90
12481;DHT22;6305;48.398;11.762;2023-10-09T14:56:25;19.80;99.90
12481;DHT22;6305;48.398;11.762;2023-10-09T14:58:56;19.70;99.90
12481;DHT22;6305;48.398;11.762;2023-10-09T15:01:24;19.60;99.90
12481;DHT22;6305;48.398;11.762;2023-10-09T15:03:55;19.60;99.90
12481;DHT22;6305;48.398;11.762;2023-10-09T15:06:26;19.50;99.90
12481;DHT22;6305;48.398;11.762;2023-10-09T15:08:56;19.50;99.90
12481;DHT22;6305;48.398;11.762;2023-10-09T15:11:25;19.40;99.90
12481;DHT22;6305;48.398;11.762;2023-10-09T15:13:55;19.30;99.90
12481;DHT22;6305;48.398;11.762;2023-10-09T15:16:24;19.30;99.90
12481;DHT22;6305;48.398;11.762;2023-10-09T15:18:54;19.20;99.90
12481;DHT22;6305;48.398;11.762;2023-10-09T15:21:29;19.20;99.90
12481;DHT22;6305;48.398;11.762;2023-10-09T15:23:59;19.10;99.90
12481;DHT22;6305;48.398;11.762;2023-10-09T15:26:27;19.10;99.90
12481;DHT22;6305;48.398;11.762;2023-10-09T15:29:00;19.10;99.90
12481;DHT22;6305;48.398;11.762;2023-10-09T15:31:30;19.00;99.90
12481;DHT22;6305;48.398;11.762;2023-10-09T15:33:58;19.00;99.90
12481;DHT22;6305;48.398;11.762;2023-10-09T15:36:25;19.00;99.90
12481;DHT22;6305;48.398;11.762;2023-10-09T15:38:55;18.90;99.90
12481;DHT22;6305;48.398;11.762;2023-10-09T15:41:27;18.80;99.90
12481;DHT22;6305;48.398;11.762;2023-10-09T15:43:57;18.80;99.90
12481;DHT22;6305;48.398;11.762;2023-10-09T15:46:25;18.80;99.90
12481;DHT22;6305;48.398;11.762;2023-10-09T15:48:53;18.80;99.90
12481;DHT22;6305;48.398;11.762;2023-10-09T15:51:21;18.80;99.90
12481;DHT22;6305;48.398;11.762;2023-10-09T15:53:48;18.80;99.90
12481;DHT22;6305;48.398;11.762;2023-10-09T15:56:17;18.80;99.90
12481;DHT22;6305;48.398;11.762;2023-10-09T15:58:46;18.70;99.90
12481;DHT22;6305;48.398;11.762;2023-10-09T16:01:13;18.70;99.90
12481;DHT22;6305;48.398;11.762;2023-10-09T16:03:41;18.70;99.90
12481;DHT22;6305;48.398;11.762;2023-10-09T16:06:09;18.60;99.90
12481;DHT22;6305;48.398;11.762;2023-10-09T16:08:38;18.60;99.90
12481;DHT22;6305;48.398;11.762;2023-10-09T16:11:06;18.50;99.90
12481;DHT22;6305;48.398;11.762;2023-10-09T16:13:34;18.40;99.90
12481;DHT22;6305;48.398;11.762;2023-10-09T16:16:05;18.40;99.90